Arnold Palmer Regional Airport Latrobe US
ICAO: KLBE
IATA: LBE
Category: Medium
Scheduled Services: Yes

Elevation: 1199 ft
TransAlt. 18000 ft.

Airport Communications:
ATIS:118.375
AWOS 3:118.375
CLEVELAND CNTR:124.4
CTAF:125
GND:121.8
TWR:125

KLBE Zoom In..

Runways:

(A) RW 03 length 3609 ft width 75 ft
---- / hdg 29

(B) RW 05 length 8222 ft width 100 ft
---- / hdg 55

(C) RW 21 length 3609 ft width 75 ft
---- / hdg 209

(D) RW 23 length 8222 ft width 100 ft
ILS 110.90 / hdg 235

Location; KLBE
Day. 23 / Time. 14.45 Zulu
* Altimeter: 29.69
* Temperature: 07° c. 44.6°f.
* Wind from: 220° Speed 10 kn.
Dewpoint: 05° c.
Visibility: 10 Statute Miles.
Clouds: Overcast 4600 ft.

KLBE 231445Z 22010KT 10SM OVC046 07/05 A2969


Wind From 220°
Speed 10 kn.

YouTube Music Video
 
jpsmedia.com for Web Design  worldairports.se 2018   terms of use